createdAt,value
2019-03-09T00:00:59.693Z,100609.15
2019-03-09T00:03:28.110Z,100603.16
2019-03-09T00:05:56.650Z,100593.08
2019-03-09T00:08:25.114Z,100585.62
2019-03-09T00:10:53.751Z,100578.33
2019-03-09T00:13:22.300Z,100570.05
2019-03-09T00:15:51.203Z,100569.22
2019-03-09T00:18:19.796Z,100556.15
2019-03-09T00:20:48.237Z,100550.34
2019-03-09T00:23:21.119Z,100533.44
2019-03-09T00:26:07.433Z,100527.14
2019-03-09T00:28:40.443Z,100519.19
2019-03-09T00:31:26.658Z,100513.89
2019-03-09T00:33:55.138Z,100513.23
2019-03-09T00:36:23.570Z,100516.88
2019-03-09T00:38:52.008Z,100506.08
2019-03-09T00:41:20.585Z,100501.30
2019-03-09T00:43:49.019Z,100493.00
2019-03-09T00:46:17.470Z,100491.67
2019-03-09T00:48:45.945Z,100500.63
2019-03-09T00:51:14.702Z,100478.05
2019-03-09T00:53:43.178Z,100473.73
2019-03-09T00:56:12.106Z,100476.05
2019-03-09T00:58:40.617Z,100460.46
2019-03-09T01:01:09.068Z,100462.45
2019-03-09T01:03:37.609Z,100457.80
2019-03-09T01:06:06.212Z,100458.79
2019-03-09T01:08:34.934Z,100452.48
2019-03-09T01:11:03.674Z,100435.58
2019-03-09T01:13:32.153Z,100431.41
2019-03-09T01:16:00.709Z,100436.23
2019-03-09T01:18:29.205Z,100427.27
2019-03-09T01:20:57.693Z,100420.64
2019-03-09T01:23:28.570Z,100413.03
2019-03-09T01:25:57.478Z,100409.72
2019-03-09T01:28:25.948Z,100394.48
2019-03-09T01:30:54.425Z,100387.19
2019-03-09T01:33:22.879Z,100384.22
2019-03-09T01:38:14.004Z,100360.22
2019-03-09T01:40:42.660Z,100352.48
2019-03-09T01:43:11.093Z,100346.19
2019-03-09T01:45:39.679Z,100330.95
2019-03-09T01:48:08.133Z,100319.84
2019-03-09T01:50:36.747Z,100313.41
2019-03-09T01:53:05.503Z,100313.89
2019-03-09T01:55:33.930Z,100297.17
2019-03-09T01:58:02.765Z,100292.06
2019-03-09T02:00:31.353Z,100295.19
2019-03-09T02:02:59.792Z,100288.89
2019-03-09T02:05:28.319Z,100273.31
2019-03-09T02:07:56.778Z,100278.95
2019-03-09T02:10:25.212Z,100266.69
2019-03-09T02:12:54.516Z,100259.73
2019-03-09T02:15:23.060Z,100245.83
2019-03-09T02:17:51.720Z,100245.17
2019-03-09T02:20:20.149Z,100233.59
2019-03-09T02:22:48.665Z,100225.83
2019-03-09T02:25:17.107Z,100219.87
2019-03-09T02:27:45.728Z,100209.95
2019-03-09T02:30:16.700Z,100205.64
2019-03-09T02:32:45.222Z,100194.39
2019-03-09T02:35:14.923Z,100185.63
2019-03-09T02:37:43.401Z,100178.03
2019-03-09T02:40:14.463Z,100178.03
2019-03-09T02:42:43.123Z,100169.09
2019-03-09T02:45:17.962Z,100154.52
2019-03-09T02:47:46.409Z,100156.84
2019-03-09T02:50:16.081Z,100150.89
2019-03-09T02:52:45.145Z,100146.27
2019-03-09T02:55:14.193Z,100130.39
2019-03-09T02:57:42.626Z,100129.74
2019-03-09T03:00:14.063Z,100120.66
2019-03-09T03:02:52.772Z,100113.52
2019-03-09T03:05:21.317Z,100105.92
2019-03-09T03:07:51.066Z,100103.47
2019-03-09T03:10:19.525Z,100085.75
2019-03-09T03:12:47.978Z,100074.83
2019-03-09T03:15:33.444Z,100074.18
2019-03-09T03:18:02.299Z,100064.26
2019-03-09T03:20:30.946Z,100056.02
2019-03-09T03:22:59.351Z,100040.42
2019-03-09T03:25:28.276Z,100027.18
2019-03-09T03:27:56.727Z,100023.20
2019-03-09T03:30:25.172Z,100014.77
2019-03-09T03:32:55.610Z,100011.61
2019-03-09T03:35:24.047Z,100003.05
2019-03-09T03:37:52.561Z,99999.37
2019-03-09T03:40:21.037Z,99997.75
2019-03-09T03:42:49.490Z,99988.16
2019-03-09T03:45:17.943Z,99986.13
2019-03-09T03:47:46.441Z,99980.53
2019-03-09T03:50:14.936Z,99972.59
2019-03-09T03:52:43.369Z,99958.64
2019-03-09T03:55:12.188Z,99948.37
2019-03-09T03:57:40.984Z,99949.02
2019-03-09T04:00:12.450Z,99941.72
2019-03-09T04:02:40.915Z,99920.84
2019-03-09T04:05:09.586Z,99915.55
2019-03-09T04:07:38.653Z,99910.89
2019-03-09T04:10:09.907Z,99907.89
2019-03-09T04:12:38.339Z,99896.30
2019-03-09T04:15:07.824Z,99898.58
2019-03-09T04:17:36.328Z,99886.34
2019-03-09T04:20:06.954Z,99882.17
2019-03-09T04:22:35.385Z,99879.03
2019-03-09T04:25:04.912Z,99869.24
2019-03-09T04:27:33.506Z,99867.44
2019-03-09T04:30:01.969Z,99861.94
2019-03-09T04:32:30.665Z,99856.48
2019-03-09T04:34:59.109Z,99851.98
2019-03-09T04:37:27.631Z,99853.14
2019-03-09T04:39:56.083Z,99848.17
2019-03-09T04:42:24.523Z,99836.56
2019-03-09T04:44:53.219Z,99833.91
2019-03-09T04:47:22.025Z,99827.61
2019-03-09T04:49:50.834Z,99827.25
2019-03-09T04:52:19.293Z,99832.98
2019-03-09T04:54:47.930Z,99821.19
2019-03-09T04:57:16.365Z,99840.37
2019-03-09T04:59:44.815Z,99845.31
2019-03-09T05:02:13.290Z,99853.59
2019-03-09T05:04:44.171Z,99846.59
2019-03-09T05:07:15.253Z,99845.91
2019-03-09T05:10:02.228Z,99866.75
2019-03-09T05:12:32.843Z,99861.25
2019-03-09T05:15:01.277Z,99855.42
2019-03-09T05:17:29.754Z,99856.05
2019-03-09T05:19:58.187Z,99878.23
2019-03-09T05:22:26.633Z,99884.17
2019-03-09T05:24:55.353Z,99883.16
2019-03-09T05:27:23.794Z,99897.55
2019-03-09T05:29:52.425Z,99892.05
2019-03-09T05:32:20.853Z,99900.96
2019-03-09T05:34:49.462Z,99864.80
2019-03-09T05:37:17.917Z,99881.03
2019-03-09T05:39:46.472Z,99859.13
2019-03-09T05:42:14.890Z,99870.05
2019-03-09T05:44:43.326Z,99857.80
2019-03-09T05:47:11.808Z,99868.41
2019-03-09T05:49:40.241Z,99880.02
2019-03-09T05:52:23.988Z,99874.40
2019-03-09T05:54:52.425Z,99889.63
2019-03-09T05:57:20.866Z,99888.25
2019-03-09T05:59:49.679Z,99887.69
2019-03-09T06:02:18.246Z,99886.51
2019-03-09T06:04:46.742Z,99874.20
2019-03-09T06:07:15.295Z,99886.78
2019-03-09T06:09:43.809Z,99883.12
2019-03-09T06:12:12.242Z,99881.42
2019-03-09T06:14:40.723Z,99889.98
2019-03-09T06:17:09.410Z,99882.50
2019-03-09T06:19:38.213Z,99883.30
2019-03-09T06:22:06.722Z,99901.55
2019-03-09T06:24:35.167Z,99898.27
2019-03-09T06:27:03.616Z,99904.58
2019-03-09T06:29:32.177Z,99902.77
2019-03-09T06:32:32.586Z,99907.06
2019-03-09T06:35:01.086Z,99928.03
2019-03-09T06:37:31.582Z,99906.44
2019-03-09T06:40:00.018Z,99914.08
2019-03-09T06:42:31.949Z,99920.13
2019-03-09T06:45:00.397Z,99916.52
2019-03-09T06:47:29.086Z,99950.39
2019-03-09T06:49:57.563Z,99935.97
2019-03-09T06:52:26.090Z,99943.77
2019-03-09T06:54:54.514Z,99941.55
2019-03-09T06:57:22.988Z,99952.92
2019-03-09T06:59:51.423Z,99948.41
2019-03-09T07:02:20.254Z,99970.91
2019-03-09T07:04:48.858Z,99969.70
2019-03-09T07:07:17.341Z,99987.39
2019-03-09T07:09:45.848Z,99988.88
2019-03-09T07:12:14.321Z,99986.55
2019-03-09T07:15:00.816Z,100004.92
2019-03-09T07:17:29.297Z,99996.79
2019-03-09T07:19:57.736Z,100013.47
2019-03-09T07:22:26.583Z,99995.02
2019-03-09T07:24:55.571Z,100011.41
2019-03-09T07:27:24.169Z,100019.01
2019-03-09T07:29:52.613Z,100013.13
2019-03-09T07:32:21.074Z,100012.39
2019-03-09T07:34:49.504Z,100025.94
2019-03-09T07:37:17.945Z,100019.25
2019-03-09T07:39:46.431Z,100021.33
2019-03-09T07:42:14.851Z,100021.45
2019-03-09T07:44:43.323Z,100050.93
2019-03-09T07:47:12.424Z,100038.44
2019-03-09T07:49:40.924Z,100062.14
2019-03-09T07:52:31.497Z,100053.97
2019-03-09T07:55:00.001Z,100054.49
2019-03-09T07:57:28.432Z,100052.73
2019-03-09T07:59:56.901Z,100036.96
2019-03-09T08:02:25.344Z,100061.70
2019-03-09T08:04:53.823Z,100061.70
2019-03-09T08:07:22.337Z,100058.84
2019-03-09T08:09:50.771Z,100058.84
2019-03-09T08:12:19.503Z,100072.45
2019-03-09T08:14:48.008Z,100057.84
2019-03-09T08:17:16.524Z,100062.98
2019-03-09T08:19:44.991Z,100066.45
2019-03-09T08:22:13.798Z,100074.61
2019-03-09T08:24:42.331Z,100052.53
2019-03-09T08:27:10.776Z,100069.74
2019-03-09T08:29:39.791Z,100063.69
2019-03-09T08:32:08.237Z,100081.02
2019-03-09T08:34:36.778Z,100048.53
2019-03-09T08:37:05.283Z,100070.64
2019-03-09T08:39:33.730Z,100079.51
2019-03-09T08:42:02.181Z,100051.55
2019-03-09T08:44:30.632Z,100054.74
2019-03-09T08:46:59.062Z,100048.41
2019-03-09T08:49:27.671Z,100051.07
2019-03-09T08:51:56.228Z,100076.65
2019-03-09T08:54:25.036Z,100062.98
2019-03-09T08:56:53.492Z,100065.63
2019-03-09T08:59:21.997Z,100051.70
2019-03-09T09:01:50.681Z,100083.98
2019-03-09T09:04:19.178Z,100087.16
2019-03-09T09:06:47.650Z,100119.91
2019-03-09T09:09:16.088Z,100121.27
2019-03-09T09:11:44.638Z,100117.22
2019-03-09T09:14:13.116Z,100130.30
2019-03-09T09:16:41.798Z,100130.84
2019-03-09T09:19:10.235Z,100135.77
2019-03-09T09:21:38.839Z,100147.23
2019-03-09T09:24:07.283Z,100134.63
2019-03-09T09:26:35.789Z,100165.20
2019-03-09T09:29:04.980Z,100133.25
2019-03-09T09:31:33.423Z,100144.58
2019-03-09T09:34:01.878Z,100145.79
2019-03-09T09:36:30.342Z,100140.36
2019-03-09T09:38:58.779Z,100127.95
2019-03-09T09:41:27.618Z,100130.70
2019-03-09T09:43:56.283Z,100131.19
2019-03-09T09:46:24.714Z,100150.85
2019-03-09T09:48:53.152Z,100147.33
2019-03-09T09:51:21.746Z,100150.16
2019-03-09T09:53:50.189Z,100180.30
2019-03-09T09:56:18.650Z,100163.98
2019-03-09T09:58:47.201Z,100179.56
2019-03-09T10:01:15.929Z,100183.87
2019-03-09T10:03:44.545Z,100200.77
2019-03-09T10:06:13.290Z,100203.63
2019-03-09T10:08:41.729Z,100171.61
2019-03-09T10:11:10.172Z,100183.89
2019-03-09T10:13:38.778Z,100185.28
2019-03-09T10:16:07.221Z,100211.36
2019-03-09T10:18:35.934Z,100201.92
2019-03-09T10:21:04.706Z,100203.80
2019-03-09T10:23:35.034Z,100206.23
2019-03-09T10:26:05.059Z,100208.88
2019-03-09T10:28:34.163Z,100213.47
2019-03-09T10:31:03.026Z,100210.33
2019-03-09T10:33:32.146Z,100212.19
2019-03-09T10:36:00.673Z,100208.92
2019-03-09T10:38:29.175Z,100219.70
2019-03-09T10:40:57.625Z,100217.05
2019-03-09T10:43:26.238Z,100221.67
2019-03-09T10:45:55.079Z,100216.59
2019-03-09T10:48:23.564Z,100212.51
2019-03-09T10:50:52.051Z,100221.02
2019-03-09T10:53:20.484Z,100224.45
2019-03-09T10:55:48.924Z,100221.83
2019-03-09T10:58:17.621Z,100220.09
2019-03-09T11:00:46.232Z,100223.59
2019-03-09T11:03:14.737Z,100222.14
2019-03-09T11:05:43.775Z,100225.98
2019-03-09T11:08:12.234Z,100224.28
2019-03-09T11:10:40.700Z,100229.34
2019-03-09T11:13:10.371Z,100245.72
2019-03-09T11:15:38.813Z,100232.03
2019-03-09T11:18:07.330Z,100244.88
2019-03-09T11:20:35.791Z,100242.62
2019-03-09T11:23:04.229Z,100268.34
2019-03-09T11:25:32.765Z,100247.36
2019-03-09T11:28:06.993Z,100247.30
2019-03-09T11:30:35.563Z,100234.09
2019-03-09T11:33:04.375Z,100251.48
2019-03-09T11:35:33.470Z,100232.69
2019-03-09T11:38:02.162Z,100249.23
2019-03-09T11:40:30.890Z,100251.41
2019-03-09T11:43:00.790Z,100243.21
2019-03-09T11:45:30.946Z,100245.81
2019-03-09T11:47:59.459Z,100228.75
2019-03-09T11:50:27.928Z,100244.17
2019-03-09T11:52:56.581Z,100212.55
2019-03-09T11:55:25.275Z,100223.54
2019-03-09T11:57:53.790Z,100219.55
2019-03-09T12:00:24.914Z,100224.75
2019-03-09T12:02:53.410Z,100238.02
2019-03-09T12:05:22.030Z,100216.20
2019-03-09T12:07:50.757Z,100214.23
2019-03-09T12:10:19.287Z,100227.03
2019-03-09T12:12:50.667Z,100227.02
2019-03-09T12:15:19.380Z,100208.92
2019-03-09T12:21:17.568Z,100212.57
2019-03-09T12:23:46.056Z,100213.11
2019-03-09T12:26:14.503Z,100216.07
2019-03-09T12:28:42.990Z,100201.27
2019-03-09T12:31:11.442Z,100203.31
2019-03-09T12:33:39.914Z,100195.21
2019-03-09T12:36:08.723Z,100188.77
2019-03-09T12:38:37.207Z,100185.95
2019-03-09T12:41:05.659Z,100188.17
2019-03-09T12:43:34.177Z,100179.41
2019-03-09T12:46:02.611Z,100186.89
2019-03-09T12:48:31.071Z,100178.66
2019-03-09T12:50:59.484Z,100181.31
2019-03-09T12:53:27.956Z,100197.09
2019-03-09T12:55:56.501Z,100181.03
2019-03-09T12:58:24.951Z,100173.59
2019-03-09T13:00:55.896Z,100157.84
2019-03-09T13:03:24.337Z,100156.04
2019-03-09T13:05:52.783Z,100153.61
2019-03-09T13:08:23.448Z,100147.88
2019-03-09T13:10:56.008Z,100141.14
2019-03-09T13:13:24.566Z,100136.43
2019-03-09T13:15:53.379Z,100135.49
2019-03-09T13:18:21.878Z,100130.24
2019-03-09T13:20:50.525Z,100133.38
2019-03-09T13:23:19.575Z,100127.14
2019-03-09T13:25:48.012Z,100130.48
2019-03-09T13:28:16.464Z,100130.83
2019-03-09T13:30:45.245Z,100122.63
2019-03-09T13:33:13.699Z,100113.61
2019-03-09T13:35:42.371Z,100108.69
2019-03-09T13:38:10.931Z,100100.61
2019-03-09T13:40:39.472Z,100115.50
2019-03-09T13:43:07.979Z,100100.75
2019-03-09T13:45:36.691Z,100104.27
2019-03-09T13:48:05.130Z,100114.95
2019-03-09T13:50:33.575Z,100106.15
2019-03-09T13:53:02.287Z,100095.66
2019-03-09T13:55:31.119Z,100100.59
2019-03-09T13:57:59.568Z,100091.78
2019-03-09T14:00:28.038Z,100078.02
2019-03-09T14:02:56.468Z,100071.66
2019-03-09T14:05:25.077Z,100072.28
2019-03-09T14:07:53.635Z,100067.57
2019-03-09T14:10:22.098Z,100067.98
2019-03-09T14:12:51.000Z,100046.02
2019-03-09T14:15:19.875Z,100050.77
2019-03-09T14:17:48.319Z,100048.50
2019-03-09T14:20:17.634Z,100043.56
2019-03-09T14:22:46.319Z,100044.19
2019-03-09T14:25:16.298Z,100028.81
2019-03-09T14:27:44.801Z,100018.14
2019-03-09T14:30:16.200Z,100011.48
2019-03-09T14:32:44.631Z,100004.81
2019-03-09T14:35:13.864Z,100000.28
2019-03-09T14:37:42.320Z,99989.52
2019-03-09T14:40:13.469Z,99989.22
2019-03-09T14:42:42.209Z,99976.91
2019-03-09T14:45:16.766Z,99967.27
2019-03-09T14:47:45.563Z,99961.00
2019-03-09T14:50:14.538Z,99961.09
2019-03-09T14:52:43.547Z,99964.97
2019-03-09T14:55:12.911Z,99961.25
2019-03-09T14:57:41.598Z,99957.61
2019-03-09T15:00:13.290Z,99964.52
2019-03-09T15:02:41.920Z,99944.87
2019-03-09T15:05:10.570Z,99921.27
2019-03-09T15:07:39.521Z,99915.17
2019-03-09T15:10:10.114Z,99903.39
2019-03-09T15:12:38.527Z,99897.13
2019-03-09T15:15:10.108Z,99892.52
2019-03-09T15:17:38.554Z,99886.35
2019-03-09T15:20:10.014Z,99873.88
2019-03-09T15:22:38.907Z,99868.88
2019-03-09T15:25:10.485Z,99855.36
2019-03-09T15:27:38.931Z,99858.15
2019-03-09T15:30:10.804Z,99836.44
2019-03-09T15:32:39.339Z,99822.02
2019-03-09T15:35:08.919Z,99806.90
2019-03-09T15:37:37.405Z,99797.41
2019-03-09T15:40:08.918Z,99792.61
2019-03-09T15:42:37.651Z,99788.62
2019-03-09T15:45:09.550Z,99779.20
2019-03-09T15:47:38.046Z,99759.73
2019-03-09T15:50:12.322Z,99759.73
2019-03-09T15:52:41.099Z,99768.24
2019-03-09T15:55:10.642Z,99771.21
2019-03-09T15:57:39.615Z,99750.63
2019-03-09T16:00:17.652Z,99761.38
2019-03-09T16:02:46.291Z,99775.80
2019-03-09T16:05:15.079Z,99776.11
2019-03-09T16:07:44.117Z,99842.58
2019-03-09T16:10:15.392Z,99793.94
2019-03-09T16:12:43.817Z,99777.44
2019-03-09T16:15:14.966Z,99778.03
2019-03-09T16:17:43.653Z,99786.80
2019-03-09T16:20:14.637Z,99777.23
2019-03-09T16:22:44.023Z,99777.91
2019-03-09T16:25:13.036Z,99778.78
2019-03-09T16:27:41.808Z,99759.09
2019-03-09T16:30:20.995Z,99752.89
2019-03-09T16:32:51.111Z,99754.65
2019-03-09T16:35:19.661Z,99745.48
2019-03-09T16:37:49.323Z,99756.97
2019-03-09T16:40:20.552Z,99750.89
2019-03-09T16:42:55.616Z,99750.77
2019-03-09T16:45:24.054Z,99746.36
2019-03-09T16:47:52.578Z,99746.05
2019-03-09T16:50:21.260Z,99756.01
2019-03-09T16:52:49.761Z,99753.36
2019-03-09T16:55:18.216Z,99742.92
2019-03-09T16:57:46.738Z,99751.08
2019-03-09T17:00:17.758Z,99755.31
2019-03-09T17:02:46.415Z,99764.27
2019-03-09T17:05:30.677Z,99753.20
2019-03-09T17:08:04.968Z,99755.20
2019-03-09T17:10:33.574Z,99753.56
2019-03-09T17:13:02.117Z,99759.88
2019-03-09T17:15:30.548Z,99759.38
2019-03-09T17:18:02.625Z,99754.57
2019-03-09T17:20:30.751Z,99754.57
2019-03-09T17:22:59.148Z,99753.24
2019-03-09T17:25:27.580Z,99769.46
2019-03-09T17:27:56.382Z,99773.13
2019-03-09T17:30:25.082Z,99803.43
2019-03-09T17:32:53.731Z,99801.09
2019-03-09T17:35:22.446Z,99805.88
2019-03-09T17:37:51.111Z,99819.66
2019-03-09T17:40:20.609Z,99839.01
2019-03-09T17:42:49.174Z,99857.08
2019-03-09T17:45:22.715Z,99905.27
2019-03-09T17:47:51.324Z,99920.84
2019-03-09T17:50:20.033Z,99961.92
2019-03-09T17:52:50.496Z,99969.66
2019-03-09T17:55:19.773Z,99992.95
2019-03-09T17:57:48.240Z,100003.72
2019-03-09T18:00:41.835Z,100024.22
2019-03-09T18:03:01.568Z,100034.10
2019-03-09T18:05:30.006Z,100047.75
2019-03-09T18:07:58.711Z,100062.52
2019-03-09T18:10:42.141Z,100076.59
2019-03-09T18:13:10.585Z,100086.70
2019-03-09T18:15:39.268Z,100097.98
2019-03-09T18:18:07.845Z,100120.30
2019-03-09T18:20:36.460Z,100123.27
2019-03-09T18:23:05.649Z,100136.00
2019-03-09T18:25:34.159Z,100148.36
2019-03-09T18:28:02.573Z,100157.11
2019-03-09T18:30:32.157Z,100186.67
2019-03-09T18:33:00.802Z,100205.97
2019-03-09T18:35:29.240Z,100222.80
2019-03-09T18:37:57.687Z,100234.21
2019-03-09T18:40:26.621Z,100231.56
2019-03-09T18:42:55.076Z,100245.45
2019-03-09T18:45:24.582Z,100241.81
2019-03-09T18:47:53.066Z,100263.62
2019-03-09T18:50:21.546Z,100273.50
2019-03-09T18:52:50.090Z,100291.85
2019-03-09T18:55:18.756Z,100281.11
2019-03-09T18:57:53.271Z,100284.75
2019-03-09T19:00:22.561Z,100295.00
2019-03-09T19:02:51.438Z,100298.98
2019-03-09T19:05:20.719Z,100311.87
2019-03-09T19:07:49.326Z,100311.56
2019-03-09T19:10:20.538Z,100302.98
2019-03-09T19:12:49.412Z,100312.23
2019-03-09T19:15:18.958Z,100306.94
2019-03-09T19:17:47.856Z,100300.98
2019-03-09T19:20:21.777Z,100313.53
2019-03-09T19:22:50.311Z,100315.50
2019-03-09T19:25:18.774Z,100313.19
2019-03-09T19:27:47.248Z,100305.25
2019-03-09T19:30:20.868Z,100307.89
2019-03-09T19:32:59.558Z,100317.48
2019-03-09T19:35:20.273Z,100305.92
2019-03-09T19:37:48.732Z,100308.72
2019-03-09T19:40:19.403Z,100306.61
2019-03-09T19:42:47.838Z,100317.34
2019-03-09T19:45:17.939Z,100313.56
2019-03-09T19:47:46.547Z,100321.51
2019-03-09T19:50:26.334Z,100324.13
2019-03-09T19:52:55.111Z,100330.42
2019-03-09T19:55:23.561Z,100332.09
2019-03-09T19:57:52.012Z,100333.77
2019-03-09T20:00:22.052Z,100328.84
2019-03-09T20:02:50.829Z,100346.02
2019-03-09T20:05:19.588Z,100342.40
2019-03-09T20:07:48.035Z,100341.09
2019-03-09T20:10:19.610Z,100351.36
2019-03-09T20:12:48.690Z,100376.48
2019-03-09T20:15:18.777Z,100362.92
2019-03-09T20:17:47.258Z,100371.53
2019-03-09T20:20:17.674Z,100389.06
2019-03-09T20:22:46.380Z,100374.69
2019-03-09T20:25:15.007Z,100382.96
2019-03-09T20:27:43.526Z,100376.67
2019-03-09T20:30:19.206Z,100379.14
2019-03-09T20:32:47.858Z,100400.14
2019-03-09T20:35:16.297Z,100390.39
2019-03-09T20:37:50.643Z,100397.48
2019-03-09T20:40:19.200Z,100384.10
2019-03-09T20:42:47.730Z,100408.58
2019-03-09T20:45:17.747Z,100411.55
2019-03-09T20:47:46.215Z,100422.14
2019-03-09T20:50:22.347Z,100417.18
2019-03-09T20:52:50.959Z,100422.14
2019-03-09T20:55:19.393Z,100429.43
2019-03-09T20:57:49.373Z,100430.77
2019-03-09T21:00:19.732Z,100428.16
2019-03-09T21:02:48.385Z,100431.80
2019-03-09T21:05:16.833Z,100442.40
2019-03-09T21:07:45.303Z,100431.12
2019-03-09T21:10:19.365Z,100429.47
2019-03-09T21:13:02.460Z,100427.48
2019-03-09T21:15:31.003Z,100436.42
2019-03-09T21:17:59.454Z,100439.73
2019-03-09T21:20:28.698Z,100429.80
2019-03-09T21:22:57.217Z,100434.30
2019-03-09T21:25:26.180Z,100424.00
2019-03-09T21:27:54.985Z,100419.87
2019-03-09T21:30:23.596Z,100430.14
2019-03-09T21:32:52.105Z,100423.20
2019-03-09T21:35:20.577Z,100419.55
2019-03-09T21:37:49.098Z,100425.52
2019-03-09T21:40:17.774Z,100440.08
2019-03-09T21:42:46.263Z,100441.41
2019-03-09T21:45:15.323Z,100455.98
2019-03-09T21:47:43.836Z,100454.65
2019-03-09T21:50:17.671Z,100466.91
2019-03-09T21:52:46.106Z,100463.27
2019-03-09T21:55:15.795Z,100497.34
2019-03-09T21:57:44.253Z,100477.47
2019-03-09T22:00:20.072Z,100498.99
2019-03-09T22:02:50.409Z,100513.08
2019-03-09T22:05:19.127Z,100504.95
2019-03-09T22:07:47.716Z,100512.90
2019-03-09T22:10:17.107Z,100519.86
2019-03-09T22:12:46.447Z,100506.46
2019-03-09T22:15:16.232Z,100517.88
2019-03-09T22:17:52.162Z,100512.24
2019-03-09T22:20:20.890Z,100520.84
2019-03-09T22:22:49.500Z,100531.77
2019-03-09T22:25:18.439Z,100530.47
2019-03-09T22:27:46.890Z,100516.89
2019-03-09T22:30:17.140Z,100513.57
2019-03-09T22:32:47.395Z,100516.55
2019-03-09T22:35:18.979Z,100499.32
2019-03-09T22:38:45.450Z,100500.64
2019-03-09T22:48:23.802Z,100517.99
2019-03-09T22:50:56.109Z,100512.53
2019-03-09T22:53:31.288Z,100516.12
2019-03-09T22:56:20.954Z,100522.06
2019-03-09T22:58:49.525Z,100523.55
2019-03-09T23:01:21.554Z,100538.76
2019-03-09T23:03:55.753Z,100537.24
2019-03-09T23:06:24.194Z,100531.95
2019-03-09T23:08:52.641Z,100535.92
2019-03-09T23:11:21.697Z,100535.59
2019-03-09T23:13:50.351Z,100535.59
2019-03-09T23:16:20.211Z,100542.86
2019-03-09T23:18:48.748Z,100542.86
2019-03-09T23:21:17.183Z,100551.14
2019-03-09T23:23:45.620Z,100549.15
2019-03-09T23:26:14.459Z,100549.94
2019-03-09T23:28:47.486Z,100559.71
2019-03-09T23:31:17.084Z,100563.34
2019-03-09T23:34:13.503Z,100569.31
2019-03-09T23:36:43.401Z,100565.67
2019-03-09T23:39:14.622Z,100570.30
2019-03-09T23:41:43.894Z,100565.99
2019-03-09T23:44:12.378Z,100563.34
2019-03-09T23:46:56.153Z,100572.94
2019-03-09T23:50:01.485Z,100567.65
2019-03-09T23:52:30.048Z,100559.20
2019-03-09T23:54:58.561Z,100571.11
2019-03-09T23:57:27.023Z,100572.63
